Gunder, Iowa
Current Conditions -  °F | °C
As of 10:55 AM on Thursday 23 Oct 2014 (Local Time) from KPDC Reporting Station
Light Rain Light Rain  
Wind Chill: 43°   Ceiling: 6500
Heat Index: 47°   Visibility: 7mi
Dew Point: 44°   Wind: 7mph
Humidity: 89%   Direction: 110°ESE
Pressure: 30.08"   Gusts: NA
Location:  42.9942°N, 91.5477°W
Report Text: KPDC 231555Z AUTO 11006KT 7SM -RA SCT020 SCT033 OVC065 08/07 A3008 RMK AO2 P0005 T00820065
Loading
Personal Weather Stations






























Interactive Weather Map
Tropical Storm Tracking
New forecast layout! Learn more

10-Day Weather Forecast

Advertisements
Track Severe Weather on mobile